Grass Valley, California
Current Conditions -  °F | °C
As of 10:20 PM on Wednesday 22 Oct 2014 (Local Time) from KGOO Reporting Station
Clear Clear  
Wind Chill: 14°   Ceiling: Unl
Heat Index: 14°   Visibility: 10mi
Dew Point:   Wind: 5mph
Humidity: 48%   Direction: 110°ESE
Pressure: 30.11"   Gusts: NA
Location:  39.22°N, 121.06°W
Report Text: KGOO 230520Z AUTO 11004KT 10SM CLR 14/03 A3011 RMK AO1
Loading
Personal Weather Stations






























Interactive Weather Map
Tropical Storm Tracking
New forecast layout! Learn more

10-Day Weather Forecast

Advertisements
Track Severe Weather on mobile